createdAt,value
2019-02-20T00:01:51.400Z,95362.86
2019-02-20T00:04:18.053Z,95357.20
2019-02-20T00:06:46.764Z,95365.39
2019-02-20T00:09:13.431Z,95364.79
2019-02-20T00:11:40.083Z,95361.54
2019-02-20T00:14:06.755Z,95360.63
2019-02-20T00:16:33.422Z,95362.14
2019-02-20T00:19:00.077Z,95356.61
2019-02-20T00:21:26.734Z,95356.32
2019-02-20T00:23:53.373Z,95356.45
2019-02-20T00:26:20.025Z,95357.37
2019-02-20T00:28:46.678Z,95357.97
2019-02-20T00:31:13.332Z,95357.88
2019-02-20T00:33:40.021Z,95362.05
2019-02-20T00:36:06.670Z,95355.98
2019-02-20T00:38:33.331Z,95353.58
2019-02-20T00:40:59.985Z,95346.66
2019-02-20T00:43:26.652Z,95349.22
2019-02-20T00:45:53.303Z,95348.05
2019-02-20T00:48:19.969Z,95344.42
2019-02-20T00:50:46.642Z,95338.31
2019-02-20T00:53:13.301Z,95335.83
2019-02-20T00:55:40.016Z,95341.26
2019-02-20T00:58:06.684Z,95337.63
2019-02-20T01:00:33.362Z,95333.67
2019-02-20T01:03:00.114Z,95331.69
2019-02-20T01:05:26.773Z,95324.89
2019-02-20T01:07:53.451Z,95328.87
2019-02-20T01:10:20.259Z,95332.82
2019-02-20T01:12:46.924Z,95328.18
2019-02-20T01:15:13.601Z,95335.60
2019-02-20T01:17:40.268Z,95338.77
2019-02-20T01:20:06.926Z,95335.26
2019-02-20T01:22:33.597Z,95336.62
2019-02-20T01:25:00.430Z,95332.57
2019-02-20T01:27:26.918Z,95338.80
2019-02-20T01:29:53.578Z,95338.55
2019-02-20T01:32:20.241Z,95337.66
2019-02-20T01:34:46.886Z,95336.11
2019-02-20T01:37:13.548Z,95334.05
2019-02-20T01:39:40.221Z,95330.80
2019-02-20T01:42:06.889Z,95327.27
2019-02-20T01:44:33.553Z,95329.13
2019-02-20T01:47:00.293Z,95329.52
2019-02-20T01:49:26.965Z,95333.20
2019-02-20T01:51:53.624Z,95335.89
2019-02-20T01:54:20.270Z,95331.63
2019-02-20T01:56:46.943Z,95326.98
2019-02-20T01:59:13.665Z,95322.78
2019-02-20T02:01:40.250Z,95324.92
2019-02-20T02:04:06.917Z,95323.31
2019-02-20T02:06:33.639Z,95321.30
2019-02-20T02:09:00.302Z,95314.34
2019-02-20T02:11:26.952Z,95318.01
2019-02-20T02:13:53.615Z,95317.00
2019-02-20T02:16:20.291Z,95311.47
2019-02-20T02:18:46.945Z,95312.58
2019-02-20T02:21:13.605Z,95313.59
2019-02-20T02:23:40.271Z,95314.34
2019-02-20T02:26:10.934Z,95310.30
2019-02-20T02:28:33.707Z,95309.58
2019-02-20T02:31:00.367Z,95305.09
2019-02-20T02:33:28.380Z,95307.59
2019-02-20T02:35:53.688Z,95308.84
2019-02-20T02:38:20.354Z,95311.63
2019-02-20T02:40:47.017Z,95312.36
2019-02-20T02:43:13.729Z,95318.20
2019-02-20T02:45:40.389Z,95313.30
2019-02-20T02:48:07.059Z,95315.83
2019-02-20T02:50:33.752Z,95315.95
2019-02-20T02:53:00.429Z,95306.98
2019-02-20T02:55:27.095Z,95311.31
2019-02-20T02:57:53.850Z,95315.48
2019-02-20T03:00:20.547Z,95314.34
2019-02-20T03:02:47.163Z,95309.55
2019-02-20T03:05:13.817Z,95308.56
2019-02-20T03:07:40.524Z,95308.44
2019-02-20T03:10:07.173Z,95318.31
2019-02-20T03:12:33.839Z,95311.21
2019-02-20T03:15:00.524Z,95319.70
2019-02-20T03:17:27.211Z,95326.05
2019-02-20T03:19:53.860Z,95335.64
2019-02-20T03:22:20.523Z,95331.34
2019-02-20T03:24:47.190Z,95332.73
2019-02-20T03:27:13.901Z,95329.95
2019-02-20T03:29:40.560Z,95328.56
2019-02-20T03:32:07.239Z,95332.08
2019-02-20T03:34:33.912Z,95329.83
2019-02-20T03:37:00.575Z,95326.92
2019-02-20T03:39:27.240Z,95325.69
2019-02-20T03:41:53.901Z,95322.63
2019-02-20T03:44:20.608Z,95323.32
2019-02-20T03:46:47.286Z,95325.97
2019-02-20T03:49:13.989Z,95325.84
2019-02-20T03:51:40.699Z,95323.57
2019-02-20T03:54:07.359Z,95327.73
2019-02-20T03:56:34.007Z,95315.39
2019-02-20T03:59:00.669Z,95317.61
2019-02-20T04:01:27.368Z,95310.28
2019-02-20T04:03:54.016Z,95314.45
2019-02-20T04:06:20.668Z,95309.60
2019-02-20T04:08:47.334Z,95320.88
2019-02-20T04:11:13.991Z,95313.07
2019-02-20T04:13:40.659Z,95312.31
2019-02-20T04:16:07.306Z,95313.08
2019-02-20T04:18:34.004Z,95302.12
2019-02-20T04:21:00.713Z,95297.83
2019-02-20T04:23:27.387Z,95303.66
2019-02-20T04:25:54.048Z,95299.75
2019-02-20T04:28:20.803Z,95296.83
2019-02-20T04:30:47.465Z,95295.20
2019-02-20T04:33:14.158Z,95304.28
2019-02-20T04:35:40.839Z,95304.40
2019-02-20T04:38:07.497Z,95308.23
2019-02-20T04:40:34.183Z,95306.05
2019-02-20T04:43:00.838Z,95312.22
2019-02-20T04:45:27.491Z,95308.75
2019-02-20T04:47:54.147Z,95314.54
2019-02-20T04:50:20.851Z,95319.20
2019-02-20T04:52:47.519Z,95321.31
2019-02-20T04:55:14.176Z,95318.77
2019-02-20T04:57:40.833Z,95319.77
2019-02-20T05:00:07.476Z,95318.48
2019-02-20T05:02:34.140Z,95314.79
2019-02-20T05:05:00.807Z,95312.52
2019-02-20T05:07:27.465Z,95318.83
2019-02-20T05:09:54.127Z,95328.14
2019-02-20T05:12:20.842Z,95323.31
2019-02-20T05:14:47.503Z,95323.48
2019-02-20T05:17:14.196Z,95323.20
2019-02-20T05:19:40.860Z,95324.22
2019-02-20T05:22:07.529Z,95324.22
2019-02-20T05:24:34.186Z,95330.61
2019-02-20T05:27:00.838Z,95336.00
2019-02-20T05:29:27.521Z,95343.48
2019-02-20T05:31:54.178Z,95342.08
2019-02-20T05:34:20.973Z,95343.72
2019-02-20T05:36:47.501Z,95340.91
2019-02-20T05:39:14.185Z,95351.33
2019-02-20T05:41:40.840Z,95348.15
2019-02-20T05:44:07.518Z,95352.48
2019-02-20T05:46:34.233Z,95358.91
2019-02-20T05:49:00.924Z,95363.98
2019-02-20T05:51:27.582Z,95366.05
2019-02-20T05:53:54.236Z,95368.64
2019-02-20T05:56:20.913Z,95369.86
2019-02-20T05:58:49.703Z,95369.38
2019-02-20T06:01:14.237Z,95358.98
2019-02-20T06:03:40.897Z,95372.13
2019-02-20T06:06:07.552Z,95375.95
2019-02-20T06:08:34.219Z,95378.23
2019-02-20T06:11:00.888Z,95380.77
2019-02-20T06:13:27.549Z,95381.50
2019-02-20T06:15:54.273Z,95383.80
2019-02-20T06:20:47.289Z,95384.73
2019-02-20T06:23:13.971Z,95378.03
2019-02-20T06:25:40.659Z,95384.41
2019-02-20T06:28:07.320Z,95393.08
2019-02-20T06:30:33.987Z,95392.85
2019-02-20T06:33:00.835Z,95396.23
2019-02-20T06:35:27.474Z,95403.82
2019-02-20T06:37:54.115Z,95408.24
2019-02-20T06:40:20.791Z,95415.58
2019-02-20T06:42:47.465Z,95421.55
2019-02-20T06:45:14.127Z,95421.42
2019-02-20T06:47:40.798Z,95416.89
2019-02-20T06:50:07.506Z,95419.80
2019-02-20T06:52:34.165Z,95428.01
2019-02-20T06:55:00.875Z,95432.42
2019-02-20T06:57:27.538Z,95425.46
2019-02-20T06:59:54.193Z,95429.09
2019-02-20T07:02:20.883Z,95426.45
2019-02-20T07:04:47.721Z,95425.77
2019-02-20T07:07:14.425Z,95424.96
2019-02-20T07:09:41.086Z,95428.80
2019-02-20T07:12:07.766Z,95428.55
2019-02-20T07:14:34.408Z,95426.35
2019-02-20T07:17:01.110Z,95427.58
2019-02-20T07:19:27.782Z,95423.45
2019-02-20T07:21:54.471Z,95427.31
2019-02-20T07:24:21.235Z,95424.58
2019-02-20T07:26:47.975Z,95432.88
2019-02-20T07:29:14.644Z,95423.55
2019-02-20T07:31:41.335Z,95427.84
2019-02-20T07:34:08.076Z,95421.31
2019-02-20T07:36:34.734Z,95429.91
2019-02-20T07:39:01.436Z,95426.98
2019-02-20T07:41:28.109Z,95424.44
2019-02-20T07:43:54.951Z,95428.59
2019-02-20T07:46:22.818Z,95424.28
2019-02-20T07:48:49.513Z,95430.06
2019-02-20T07:51:16.156Z,95420.56
2019-02-20T07:53:42.815Z,95413.28
2019-02-20T07:56:09.483Z,95423.09
2019-02-20T07:58:36.131Z,95430.03
2019-02-20T08:01:02.812Z,95432.58
2019-02-20T08:03:29.756Z,95428.67
2019-02-20T08:05:56.195Z,95425.56
2019-02-20T08:08:22.867Z,95428.20
2019-02-20T08:10:49.518Z,95425.66
2019-02-20T08:13:16.200Z,95430.13
2019-02-20T08:15:42.854Z,95424.52
2019-02-20T08:18:09.561Z,95421.63
2019-02-20T08:20:36.257Z,95426.03
2019-02-20T08:23:02.911Z,95422.41
2019-02-20T08:25:29.578Z,95424.50
2019-02-20T08:27:56.304Z,95430.92
2019-02-20T08:30:23.100Z,95419.73
2019-02-20T08:32:49.782Z,95414.47
2019-02-20T08:35:16.458Z,95416.95
2019-02-20T08:37:43.142Z,95414.92
2019-02-20T08:40:09.856Z,95411.90
2019-02-20T08:42:36.547Z,95421.34
2019-02-20T08:45:03.343Z,95414.73
2019-02-20T08:47:30.030Z,95406.30
2019-02-20T08:49:56.852Z,95410.78
2019-02-20T08:52:23.500Z,95397.41
2019-02-20T08:54:50.165Z,95411.88
2019-02-20T08:57:16.951Z,95416.52
2019-02-20T08:59:43.776Z,95418.16
2019-02-20T09:02:10.458Z,95413.66
2019-02-20T09:04:37.160Z,95415.28
2019-02-20T09:07:03.861Z,95410.78
2019-02-20T09:09:30.522Z,95420.33
2019-02-20T09:11:57.256Z,95414.02
2019-02-20T09:14:23.952Z,95419.69
2019-02-20T09:16:50.648Z,95416.12
2019-02-20T09:19:17.310Z,95418.80
2019-02-20T09:21:45.106Z,95416.11
2019-02-20T09:24:11.764Z,95410.59
2019-02-20T09:26:38.484Z,95407.35
2019-02-20T09:29:05.153Z,95400.27
2019-02-20T09:31:31.851Z,95392.10
2019-02-20T09:33:58.547Z,95404.30
2019-02-20T09:36:25.226Z,95407.78
2019-02-20T09:38:51.930Z,95402.91
2019-02-20T09:41:18.631Z,95404.85
2019-02-20T09:43:45.295Z,95406.00
2019-02-20T09:46:12.002Z,95397.05
2019-02-20T09:48:38.676Z,95399.86
2019-02-20T09:51:05.370Z,95394.73
2019-02-20T09:53:32.060Z,95391.09
2019-02-20T09:56:01.276Z,95390.44
2019-02-20T09:58:27.997Z,95387.02
2019-02-20T10:00:54.675Z,95375.44
2019-02-20T10:03:23.514Z,95380.84
2019-02-20T10:05:48.091Z,95370.52
2019-02-20T10:08:14.753Z,95371.98
2019-02-20T10:10:41.523Z,95362.80
2019-02-20T10:13:10.950Z,95360.86
2019-02-20T10:15:34.875Z,95351.70
2019-02-20T10:18:01.581Z,95348.91
2019-02-20T10:20:28.272Z,95353.98
2019-02-20T10:22:54.976Z,95332.16
2019-02-20T10:25:21.659Z,95348.33
2019-02-20T10:27:48.342Z,95339.23
2019-02-20T10:30:15.074Z,95335.91
2019-02-20T10:32:41.786Z,95337.94
2019-02-20T10:35:08.594Z,95323.13
2019-02-20T10:37:35.253Z,95326.80
2019-02-20T10:40:01.926Z,95316.65
2019-02-20T10:42:31.877Z,95319.55
2019-02-20T10:44:58.555Z,95300.16
2019-02-20T10:47:25.212Z,95301.13
2019-02-20T10:49:51.909Z,95299.70
2019-02-20T10:52:18.711Z,95306.88
2019-02-20T10:54:45.656Z,95295.84
2019-02-20T10:57:12.044Z,95295.03
2019-02-20T10:59:38.717Z,95300.78
2019-02-20T11:02:05.391Z,95285.88
2019-02-20T11:04:33.258Z,95280.25
2019-02-20T11:06:59.985Z,95277.13
2019-02-20T11:09:26.671Z,95281.00
2019-02-20T11:11:54.520Z,95271.64
2019-02-20T11:14:20.075Z,95271.30
2019-02-20T11:16:46.719Z,95267.25
2019-02-20T11:19:13.412Z,95269.34
2019-02-20T11:21:40.116Z,95267.75
2019-02-20T11:24:06.792Z,95264.20
2019-02-20T11:26:33.460Z,95265.02
2019-02-20T11:29:00.126Z,95267.86
2019-02-20T11:31:26.836Z,95263.33
2019-02-20T11:33:53.734Z,95265.39
2019-02-20T11:36:20.421Z,95243.19
2019-02-20T11:38:47.092Z,95257.37
2019-02-20T11:41:13.845Z,95251.97
2019-02-20T11:43:40.599Z,95261.02
2019-02-20T11:46:07.433Z,95265.46
2019-02-20T11:48:34.125Z,95260.84
2019-02-20T11:51:00.860Z,95255.69
2019-02-20T11:53:27.656Z,95250.48
2019-02-20T11:55:54.312Z,95256.55
2019-02-20T11:58:21.015Z,95253.59
2019-02-20T12:00:47.679Z,95256.27
2019-02-20T12:03:14.402Z,95246.88
2019-02-20T12:05:41.153Z,95260.00
2019-02-20T12:08:07.850Z,95255.09
2019-02-20T12:10:34.543Z,95255.88
2019-02-20T12:13:01.233Z,95261.00
2019-02-20T12:15:27.941Z,95259.31
2019-02-20T12:17:54.647Z,95250.28
2019-02-20T12:20:21.315Z,95260.69
2019-02-20T12:22:47.972Z,95261.81
2019-02-20T12:25:14.656Z,95259.55
2019-02-20T12:27:41.416Z,95261.76
2019-02-20T12:30:08.129Z,95251.13
2019-02-20T12:32:34.860Z,95240.35
2019-02-20T12:35:01.553Z,95251.33
2019-02-20T12:37:28.308Z,95253.16
2019-02-20T12:39:55.201Z,95249.30
2019-02-20T12:42:21.924Z,95260.34
2019-02-20T12:44:48.628Z,95261.17
2019-02-20T12:47:15.306Z,95250.91
2019-02-20T12:49:41.982Z,95249.38
2019-02-20T12:52:08.706Z,95248.40
2019-02-20T12:54:35.370Z,95245.30
2019-02-20T12:57:03.133Z,95249.90
2019-02-20T12:59:29.932Z,95250.54
2019-02-20T13:01:56.628Z,95247.52
2019-02-20T13:04:24.575Z,95245.06
2019-02-20T13:06:59.180Z,95247.69
2019-02-20T13:09:16.681Z,95242.53
2019-02-20T13:11:48.851Z,95243.75
2019-02-20T13:14:16.631Z,95237.34
2019-02-20T13:16:43.336Z,95252.50
2019-02-20T13:19:10.030Z,95243.67
2019-02-20T13:21:36.709Z,95248.03
2019-02-20T13:24:03.377Z,95257.55
2019-02-20T13:26:30.091Z,95254.13
2019-02-20T13:28:56.850Z,95245.03
2019-02-20T13:31:23.610Z,95254.09
2019-02-20T13:33:50.426Z,95247.51
2019-02-20T13:36:17.147Z,95254.16
2019-02-20T13:38:43.908Z,95257.80
2019-02-20T13:41:12.446Z,95255.33
2019-02-20T13:43:37.238Z,95259.70
2019-02-20T13:46:03.926Z,95253.32
2019-02-20T13:48:30.672Z,95255.33
2019-02-20T13:50:57.341Z,95249.94
2019-02-20T13:53:24.029Z,95260.39
2019-02-20T13:55:50.734Z,95263.45
2019-02-20T13:58:17.756Z,95264.12
2019-02-20T14:00:44.062Z,95263.38
2019-02-20T14:03:10.750Z,95266.97
2019-02-20T14:05:37.429Z,95264.03
2019-02-20T14:08:04.108Z,95274.12
2019-02-20T14:10:30.763Z,95267.58
2019-02-20T14:12:57.489Z,95269.38
2019-02-20T14:15:24.154Z,95274.64
2019-02-20T14:17:50.830Z,95280.12
2019-02-20T14:20:17.540Z,95278.20
2019-02-20T14:22:45.791Z,95274.76
2019-02-20T14:25:10.931Z,95279.75
2019-02-20T14:27:37.693Z,95276.59
2019-02-20T14:30:04.354Z,95264.91
2019-02-20T14:32:31.165Z,95274.27
2019-02-20T14:34:57.854Z,95280.67
2019-02-20T14:37:24.579Z,95275.74
2019-02-20T14:39:51.234Z,95280.67
2019-02-20T14:42:18.056Z,95279.02
2019-02-20T14:44:44.717Z,95282.45
2019-02-20T14:47:11.517Z,95283.46
2019-02-20T14:49:38.212Z,95287.03
2019-02-20T14:52:05.392Z,95293.08
2019-02-20T14:54:32.060Z,95282.08
2019-02-20T14:56:58.813Z,95287.30
2019-02-20T14:59:25.510Z,95275.86
2019-02-20T15:01:52.365Z,95283.00
2019-02-20T15:04:19.018Z,95289.11
2019-02-20T15:06:45.717Z,95292.23
2019-02-20T15:09:12.373Z,95284.03
2019-02-20T15:11:39.109Z,95290.64
2019-02-20T15:14:05.785Z,95287.95
2019-02-20T15:16:32.506Z,95288.55
2019-02-20T15:18:59.177Z,95292.39
2019-02-20T15:21:25.882Z,95294.16
2019-02-20T15:23:52.542Z,95290.64
2019-02-20T15:26:19.191Z,95293.96
2019-02-20T15:28:45.954Z,95296.81
2019-02-20T15:31:12.599Z,95302.83
2019-02-20T15:33:39.256Z,95303.52
2019-02-20T15:36:06.065Z,95304.48
2019-02-20T15:38:32.838Z,95305.16
2019-02-20T15:40:59.508Z,95303.76
2019-02-20T15:43:26.263Z,95302.12
2019-02-20T15:45:53.069Z,95306.31
2019-02-20T15:48:23.254Z,95317.64
2019-02-20T15:50:47.684Z,95318.42
2019-02-20T15:53:14.506Z,95305.37
2019-02-20T15:55:41.291Z,95317.03
2019-02-20T15:58:07.938Z,95320.19
2019-02-20T16:00:34.571Z,95326.29
2019-02-20T16:03:01.236Z,95326.47
2019-02-20T16:05:27.941Z,95334.77
2019-02-20T16:07:54.613Z,95336.59
2019-02-20T16:10:21.679Z,95338.51
2019-02-20T16:12:47.939Z,95338.02
2019-02-20T16:15:14.818Z,95342.43
2019-02-20T16:17:41.319Z,95352.19
2019-02-20T16:20:08.005Z,95346.99
2019-02-20T16:22:34.655Z,95358.34
2019-02-20T16:25:01.325Z,95362.09
2019-02-20T16:27:27.990Z,95367.08
2019-02-20T16:29:54.698Z,95364.69
2019-02-20T16:32:21.352Z,95370.58
2019-02-20T16:34:48.030Z,95376.64
2019-02-20T16:37:14.699Z,95375.63
2019-02-20T16:39:41.409Z,95378.09
2019-02-20T16:42:08.154Z,95369.69
2019-02-20T16:44:34.808Z,95390.58
2019-02-20T16:47:01.480Z,95389.20
2019-02-20T16:49:28.163Z,95397.10
2019-02-20T16:51:54.848Z,95399.02
2019-02-20T16:54:21.695Z,95402.35
2019-02-20T16:56:48.348Z,95409.12
2019-02-20T16:59:15.022Z,95408.96
2019-02-20T17:01:41.722Z,95419.03
2019-02-20T17:04:08.398Z,95426.73
2019-02-20T17:06:35.106Z,95427.77
2019-02-20T17:09:01.759Z,95432.63
2019-02-20T17:11:28.461Z,95438.50
2019-02-20T17:13:55.159Z,95442.81
2019-02-20T17:16:21.854Z,95438.00
2019-02-20T17:18:48.512Z,95445.02
2019-02-20T17:21:15.155Z,95447.80
2019-02-20T17:23:41.862Z,95448.31
2019-02-20T17:26:08.516Z,95452.38
2019-02-20T17:28:35.206Z,95453.06
2019-02-20T17:31:01.882Z,95446.86
2019-02-20T17:33:28.543Z,95450.56
2019-02-20T17:35:55.234Z,95451.80
2019-02-20T17:38:21.893Z,95445.57
2019-02-20T17:40:48.603Z,95456.92
2019-02-20T17:43:15.259Z,95461.10
2019-02-20T17:45:41.916Z,95465.58
2019-02-20T17:48:08.623Z,95463.67
2019-02-20T17:50:35.290Z,95466.08
2019-02-20T17:53:01.943Z,95476.61
2019-02-20T17:55:28.645Z,95480.45
2019-02-20T17:57:55.354Z,95474.62
2019-02-20T18:00:22.031Z,95473.64
2019-02-20T18:02:48.680Z,95477.54
2019-02-20T18:05:15.359Z,95474.16
2019-02-20T18:07:48.786Z,95481.25
2019-02-20T18:10:08.814Z,95481.13
2019-02-20T18:12:35.484Z,95488.26
2019-02-20T18:15:02.123Z,95489.19
2019-02-20T18:17:28.786Z,95492.19
2019-02-20T18:19:55.437Z,95489.78
2019-02-20T18:22:22.190Z,95495.52
2019-02-20T18:24:48.842Z,95496.41
2019-02-20T18:27:15.491Z,95493.62
2019-02-20T18:29:42.167Z,95495.27
2019-02-20T18:32:08.828Z,95494.94
2019-02-20T18:34:35.480Z,95496.58
2019-02-20T18:37:02.200Z,95504.91
2019-02-20T18:39:28.851Z,95503.42
2019-02-20T18:41:55.497Z,95510.39
2019-02-20T18:44:22.138Z,95511.82
2019-02-20T18:46:48.801Z,95512.20
2019-02-20T18:49:15.478Z,95509.16
2019-02-20T18:51:42.122Z,95510.30
2019-02-20T18:54:08.787Z,95523.34
2019-02-20T18:56:35.437Z,95530.34
2019-02-20T18:59:02.141Z,95532.63
2019-02-20T19:01:28.766Z,95524.81
2019-02-20T19:03:56.754Z,95532.25
2019-02-20T19:06:22.077Z,95532.92
2019-02-20T19:08:48.735Z,95531.78
2019-02-20T19:11:15.403Z,95535.62
2019-02-20T19:13:42.185Z,95543.17
2019-02-20T19:16:08.859Z,95544.88
2019-02-20T19:18:35.533Z,95545.70
2019-02-20T19:21:02.174Z,95546.89
2019-02-20T19:23:28.803Z,95541.98
2019-02-20T19:25:55.498Z,95547.22
2019-02-20T19:28:22.130Z,95556.87
2019-02-20T19:30:48.789Z,95558.52
2019-02-20T19:33:15.484Z,95562.73
2019-02-20T19:35:42.089Z,95564.00
2019-02-20T19:38:09.554Z,95560.36
2019-02-20T19:40:35.421Z,95565.93
2019-02-20T19:43:02.083Z,95561.12
2019-02-20T19:45:28.728Z,95564.44
2019-02-20T19:47:55.390Z,95567.98
2019-02-20T19:50:22.103Z,95571.06
2019-02-20T19:52:48.703Z,95568.18
2019-02-20T19:55:15.359Z,95564.26
2019-02-20T19:57:42.150Z,95576.53
2019-02-20T20:00:08.796Z,95573.24
2019-02-20T20:02:35.457Z,95572.61
2019-02-20T20:05:02.125Z,95565.40
2019-02-20T20:07:28.782Z,95577.45
2019-02-20T20:09:55.431Z,95569.83
2019-02-20T20:12:22.112Z,95570.49
2019-02-20T20:14:48.766Z,95567.20
2019-02-20T20:17:15.489Z,95571.89
2019-02-20T20:19:42.079Z,95570.81
2019-02-20T20:22:08.724Z,95568.72
2019-02-20T20:24:35.412Z,95576.34
2019-02-20T20:27:02.155Z,95572.36
2019-02-20T20:29:28.899Z,95573.37
2019-02-20T20:31:55.564Z,95579.34
2019-02-20T20:34:22.203Z,95575.52
2019-02-20T20:36:50.916Z,95575.61
2019-02-20T20:39:17.508Z,95588.27
2019-02-20T20:41:42.191Z,95586.46
2019-02-20T20:44:08.857Z,95592.77
2019-02-20T20:46:35.624Z,95590.73
2019-02-20T20:49:02.294Z,95600.07
2019-02-20T20:51:28.939Z,95602.85
2019-02-20T20:53:56.316Z,95602.98
2019-02-20T20:56:22.267Z,95600.66
2019-02-20T20:58:48.967Z,95599.03
2019-02-20T21:01:15.635Z,95596.88
2019-02-20T21:03:42.301Z,95601.84
2019-02-20T21:06:08.944Z,95600.93
2019-02-20T21:08:35.612Z,95606.12
2019-02-20T21:11:02.276Z,95605.87
2019-02-20T21:13:29.051Z,95602.58
2019-02-20T21:15:55.615Z,95608.64
2019-02-20T21:18:22.290Z,95601.97
2019-02-20T21:20:48.943Z,95603.84
2019-02-20T21:23:15.612Z,95605.61
2019-02-20T21:25:42.259Z,95603.71
2019-02-20T21:28:08.935Z,95606.49
2019-02-20T21:30:35.598Z,95611.95
2019-02-20T21:33:02.280Z,95613.73
2019-02-20T21:35:28.944Z,95613.86
2019-02-20T21:37:55.593Z,95613.63
2019-02-20T21:40:22.365Z,95614.77
2019-02-20T21:42:49.014Z,95614.00
2019-02-20T21:45:15.666Z,95607.81
2019-02-20T21:47:42.319Z,95609.32
2019-02-20T21:50:08.993Z,95610.48
2019-02-20T21:52:35.675Z,95615.65
2019-02-20T21:55:02.348Z,95610.09
2019-02-20T21:57:29.836Z,95611.98
2019-02-20T21:59:56.481Z,95619.20
2019-02-20T22:02:23.142Z,95614.53
2019-02-20T22:04:49.800Z,95616.55
2019-02-20T22:07:16.459Z,95618.34
2019-02-20T22:09:43.118Z,95620.37
2019-02-20T22:12:09.814Z,95618.83
2019-02-20T22:14:36.472Z,95623.53
2019-02-20T22:17:03.134Z,95627.95
2019-02-20T22:19:29.803Z,95627.58
2019-02-20T22:21:56.465Z,95632.88
2019-02-20T22:24:23.328Z,95634.41
2019-02-20T22:26:49.784Z,95639.86
2019-02-20T22:29:16.431Z,95639.98
2019-02-20T22:31:43.101Z,95641.13
2019-02-20T22:34:09.752Z,95637.08
2019-02-20T22:36:36.422Z,95633.66
2019-02-20T22:39:03.076Z,95640.36
2019-02-20T22:41:29.738Z,95633.41
2019-02-20T22:43:56.403Z,95628.00
2019-02-20T22:46:23.080Z,95631.64
2019-02-20T22:48:49.743Z,95633.94
2019-02-20T22:51:16.394Z,95631.28
2019-02-20T22:53:43.055Z,95622.05
2019-02-20T22:56:09.750Z,95624.70
2019-02-20T22:58:36.535Z,95628.00
2019-02-20T23:01:03.189Z,95631.51
2019-02-20T23:03:29.896Z,95624.70
2019-02-20T23:05:56.564Z,95630.52
2019-02-20T23:08:23.217Z,95628.73
2019-02-20T23:10:49.877Z,95630.77
2019-02-20T23:13:16.528Z,95630.38
2019-02-20T23:15:43.408Z,95631.15
2019-02-20T23:18:09.838Z,95634.93
2019-02-20T23:20:36.536Z,95631.67
2019-02-20T23:23:03.197Z,95633.41
2019-02-20T23:25:29.848Z,95636.86
2019-02-20T23:27:56.522Z,95635.97
2019-02-20T23:30:23.172Z,95629.39
2019-02-20T23:32:49.822Z,95632.16
2019-02-20T23:35:16.489Z,95632.93
2019-02-20T23:37:43.134Z,95633.06
2019-02-20T23:40:09.811Z,95636.47
2019-02-20T23:42:36.491Z,95634.44
2019-02-20T23:45:03.166Z,95638.39
2019-02-20T23:47:29.882Z,95642.55
2019-02-20T23:49:56.704Z,95641.80
2019-02-20T23:52:23.291Z,95640.41
2019-02-20T23:54:49.969Z,95641.28
2019-02-20T23:57:16.629Z,95638.52
2019-02-20T23:59:43.285Z,95638.89
